createdAt,value
2022-09-11T00:00:39.588Z,331.21
2022-09-11T00:01:35.448Z,331.55
2022-09-11T00:02:30.623Z,333.57
2022-09-11T00:03:25.764Z,331.88
2022-09-11T00:04:21.657Z,332.55
2022-09-11T00:05:16.847Z,333.57
2022-09-11T00:06:12.677Z,332.89
2022-09-11T00:07:07.814Z,333.57
2022-09-11T00:08:03.133Z,335.96
2022-09-11T00:08:58.891Z,338.73
2022-09-11T00:09:54.018Z,339.44
2022-09-11T00:10:49.441Z,341.91
2022-09-11T00:11:45.462Z,343.34
2022-09-11T00:12:40.752Z,343.70
2022-09-11T00:13:36.615Z,344.42
2022-09-11T00:14:31.755Z,344.42
2022-09-11T00:15:27.198Z,344.06
2022-09-11T00:16:23.003Z,341.20
2022-09-11T00:17:18.122Z,337.34
2022-09-11T00:18:14.100Z,336.30
2022-09-11T00:19:09.232Z,339.44
2022-09-11T00:20:04.643Z,339.08
2022-09-11T00:21:00.237Z,341.91
2022-09-11T00:21:55.541Z,341.20
2022-09-11T00:22:50.677Z,344.79
2022-09-11T00:23:47.208Z,345.88
2022-09-11T00:24:42.399Z,346.61
2022-09-11T00:25:38.247Z,348.82
2022-09-11T00:26:33.375Z,346.61
2022-09-11T00:27:28.558Z,347.34
2022-09-11T00:28:24.379Z,348.45
2022-09-11T00:29:19.565Z,351.06
2022-09-11T00:30:15.385Z,348.82
2022-09-11T00:31:10.555Z,351.06
2022-09-11T00:32:05.873Z,339.08
2022-09-11T00:33:01.759Z,335.27
2022-09-11T00:33:56.939Z,340.14
2022-09-11T00:34:52.230Z,343.70
2022-09-11T00:35:48.765Z,345.51
2022-09-11T00:36:43.914Z,345.88
2022-09-11T00:37:39.154Z,349.56
2022-09-11T00:38:34.324Z,351.06
2022-09-11T00:39:30.153Z,352.19
2022-09-11T00:40:25.480Z,356.40
2022-09-11T00:41:21.162Z,357.95
2022-09-11T00:42:16.320Z,357.95
2022-09-11T00:43:11.661Z,357.56
2022-09-11T00:44:07.481Z,359.52
2022-09-11T00:45:02.651Z,363.50
2022-09-11T00:45:57.822Z,362.70
2022-09-11T00:46:54.213Z,363.50
2022-09-11T00:47:49.500Z,363.10
2022-09-11T00:48:45.472Z,358.34
2022-09-11T00:49:40.723Z,355.62
2022-09-11T00:50:35.879Z,357.17
2022-09-11T00:51:31.762Z,352.95
2022-09-11T00:52:27.057Z,349.56
2022-09-11T00:53:23.059Z,346.97
2022-09-11T00:54:18.198Z,346.61
2022-09-11T00:55:13.305Z,346.61
2022-09-11T00:56:08.666Z,348.08
2022-09-11T00:57:03.826Z,349.56
2022-09-11T00:57:58.998Z,351.06
2022-09-11T00:58:54.316Z,351.06
2022-09-11T00:59:49.983Z,348.45
2022-09-11T01:00:45.385Z,345.88
2022-09-11T01:01:40.406Z,346.61
2022-09-11T01:02:36.400Z,349.19
2022-09-11T01:03:31.665Z,349.56
2022-09-11T01:04:26.855Z,348.08
2022-09-11T01:05:22.129Z,349.56
2022-09-11T01:06:17.166Z,349.93
2022-09-11T01:07:12.187Z,350.68
2022-09-11T01:08:07.186Z,351.06
2022-09-11T01:09:02.244Z,351.06
2022-09-11T01:09:57.270Z,348.08
2022-09-11T01:10:52.395Z,347.34
2022-09-11T01:11:47.408Z,349.93
2022-09-11T01:12:42.661Z,351.43
2022-09-11T01:13:37.649Z,348.08
2022-09-11T01:14:34.694Z,350.31
2022-09-11T01:15:27.630Z,350.31
2022-09-11T01:16:22.694Z,354.47
2022-09-11T01:17:17.882Z,352.95
2022-09-11T01:18:12.905Z,355.24
2022-09-11T01:19:07.936Z,353.71
2022-09-11T01:20:03.052Z,353.71
2022-09-11T01:20:58.161Z,353.71
2022-09-11T01:21:56.807Z,354.85
2022-09-11T01:22:51.904Z,356.78
2022-09-11T01:23:46.927Z,356.78
2022-09-11T01:24:41.928Z,352.95
2022-09-11T01:25:37.086Z,356.78
2022-09-11T01:26:32.257Z,355.62
2022-09-11T01:27:27.128Z,354.85
2022-09-11T01:28:22.236Z,356.40
2022-09-11T01:29:17.296Z,354.85
2022-09-11T01:30:12.297Z,356.40
2022-09-11T01:31:07.375Z,352.95
2022-09-11T01:32:02.543Z,350.31
2022-09-11T01:32:57.526Z,350.68
2022-09-11T01:33:52.594Z,348.08
2022-09-11T01:34:47.646Z,348.08
2022-09-11T01:35:42.703Z,348.82
2022-09-11T01:36:39.584Z,351.81
2022-09-11T01:37:34.602Z,352.57
2022-09-11T01:38:29.664Z,352.19
2022-09-11T01:39:24.691Z,351.43
2022-09-11T01:40:19.761Z,346.61
2022-09-11T01:41:14.760Z,343.70
2022-09-11T01:42:09.791Z,345.51
2022-09-11T01:43:04.789Z,343.34
2022-09-11T01:43:59.941Z,344.42
2022-09-11T01:44:55.103Z,347.34
2022-09-11T01:45:50.027Z,349.19
2022-09-11T01:46:45.030Z,346.61
2022-09-11T01:47:40.593Z,347.34
2022-09-11T01:48:35.742Z,348.82
2022-09-11T01:49:30.887Z,348.82
2022-09-11T01:50:26.756Z,347.71
2022-09-11T01:51:21.913Z,351.43
2022-09-11T01:52:17.860Z,354.47
2022-09-11T01:53:13.125Z,356.78
2022-09-11T01:54:08.389Z,357.56
2022-09-11T01:55:04.247Z,357.17
2022-09-11T01:55:59.523Z,359.52
2022-09-11T01:56:54.774Z,359.13
2022-09-11T01:57:51.168Z,358.34
2022-09-11T01:58:46.330Z,358.73
2022-09-11T01:59:42.223Z,358.73
2022-09-11T02:00:37.335Z,362.30
2022-09-11T02:01:32.733Z,362.30
2022-09-11T02:02:28.465Z,363.91
2022-09-11T02:03:23.877Z,366.34
2022-09-11T02:04:19.615Z,365.93
2022-09-11T02:05:14.738Z,367.16
2022-09-11T02:06:10.273Z,366.75
2022-09-11T02:07:06.139Z,365.12
2022-09-11T02:08:01.454Z,367.16
2022-09-11T02:08:56.601Z,370.06
2022-09-11T02:09:53.110Z,368.81
2022-09-11T02:10:48.413Z,369.64
2022-09-11T02:11:44.265Z,370.48
2022-09-11T02:12:39.524Z,373.86
2022-09-11T02:13:34.801Z,376.86
2022-09-11T02:14:30.506Z,376.86
2022-09-11T02:15:25.711Z,376.86
2022-09-11T02:16:21.568Z,380.18
2022-09-11T02:17:16.701Z,381.92
2022-09-11T02:18:11.987Z,382.14
2022-09-11T02:19:07.809Z,380.61
2022-09-11T02:20:03.000Z,381.92
2022-09-11T02:20:58.289Z,382.36
2022-09-11T02:21:54.550Z,383.24
2022-09-11T02:22:49.828Z,384.56
2022-09-11T02:23:45.662Z,385.23
2022-09-11T02:24:40.801Z,386.35
2022-09-11T02:25:35.989Z,389.28
2022-09-11T02:26:31.708Z,386.57
2022-09-11T02:27:26.979Z,386.35
2022-09-11T02:28:22.944Z,382.58
2022-09-11T02:29:17.988Z,382.58
2022-09-11T02:30:13.153Z,386.12
2022-09-11T02:31:09.185Z,385.90
2022-09-11T02:32:04.238Z,384.12
2022-09-11T02:32:59.643Z,383.02
2022-09-11T02:33:54.816Z,381.05
2022-09-11T02:34:51.319Z,373.86
2022-09-11T02:35:46.583Z,375.14
2022-09-11T02:36:41.882Z,376.00
2022-09-11T02:37:37.747Z,374.28
2022-09-11T02:38:32.936Z,373.43
2022-09-11T02:39:28.062Z,375.14
2022-09-11T02:40:24.448Z,374.71
2022-09-11T02:41:19.745Z,375.14
2022-09-11T02:42:15.588Z,378.17
2022-09-11T02:43:10.725Z,382.80
2022-09-11T02:44:05.995Z,377.73
2022-09-11T02:45:01.852Z,377.73
2022-09-11T02:45:57.268Z,374.71
2022-09-11T02:46:53.131Z,373.01
2022-09-11T02:47:48.145Z,374.28
2022-09-11T02:48:43.449Z,377.73
2022-09-11T02:49:39.444Z,379.53
2022-09-11T02:50:34.704Z,381.48
2022-09-11T02:51:29.838Z,378.17
2022-09-11T02:52:24.998Z,380.39
2022-09-11T02:53:20.156Z,379.75
2022-09-11T02:54:15.581Z,377.73
2022-09-11T02:55:10.731Z,377.30
2022-09-11T02:56:05.988Z,378.17
2022-09-11T02:57:01.994Z,377.30
2022-09-11T02:57:57.142Z,379.75
2022-09-11T02:58:52.557Z,379.75
2022-09-11T02:59:47.815Z,380.39
2022-09-11T03:00:42.823Z,372.16
2022-09-11T03:01:37.941Z,373.01
2022-09-11T03:02:32.857Z,372.16
2022-09-11T03:03:27.835Z,370.90
2022-09-11T03:04:22.902Z,368.40
2022-09-11T03:05:18.026Z,369.64
2022-09-11T03:06:13.071Z,369.23
2022-09-11T03:07:08.110Z,371.32
2022-09-11T03:08:03.095Z,368.40
2022-09-11T03:08:58.096Z,370.90
2022-09-11T03:09:53.134Z,370.90
2022-09-11T03:10:48.152Z,371.32
2022-09-11T03:11:43.241Z,364.71
2022-09-11T03:12:38.273Z,366.75
2022-09-11T03:13:33.324Z,367.99
2022-09-11T03:14:28.303Z,373.01
2022-09-11T03:15:23.361Z,366.34
2022-09-11T03:16:18.404Z,365.12
2022-09-11T03:17:13.400Z,367.58
2022-09-11T03:18:08.440Z,370.48
2022-09-11T03:19:03.443Z,372.16
2022-09-11T03:19:58.691Z,376.86
2022-09-11T03:20:53.963Z,376.86
2022-09-11T03:21:49.096Z,379.75
2022-09-11T03:22:44.373Z,377.73
2022-09-11T03:23:40.219Z,376.00
2022-09-11T03:24:35.484Z,374.71
2022-09-11T03:25:31.346Z,374.71
2022-09-11T03:26:26.642Z,376.86
2022-09-11T03:27:21.907Z,378.17
2022-09-11T03:28:17.638Z,383.24
2022-09-11T03:29:12.937Z,382.14
2022-09-11T03:30:08.065Z,383.90
2022-09-11T03:31:04.595Z,385.01
2022-09-11T03:31:59.945Z,387.24
2022-09-11T03:32:55.637Z,387.69
2022-09-11T03:33:50.781Z,389.05
2022-09-11T03:34:45.941Z,391.10
2022-09-11T03:35:41.916Z,389.96
2022-09-11T03:36:37.111Z,395.51
2022-09-11T03:37:32.814Z,395.04
2022-09-11T03:38:28.073Z,394.81
2022-09-11T03:39:23.255Z,395.98
2022-09-11T03:40:19.094Z,398.82
2022-09-11T03:41:14.310Z,396.92
2022-09-11T03:42:09.423Z,394.58
2022-09-11T03:43:05.836Z,393.41
2022-09-11T03:44:00.982Z,398.11
2022-09-11T03:44:56.930Z,393.64
2022-09-11T03:45:52.139Z,395.75
2022-09-11T03:46:47.418Z,398.35
2022-09-11T03:47:43.309Z,398.35
2022-09-11T03:48:38.478Z,396.22
2022-09-11T03:49:34.437Z,396.22
2022-09-11T03:50:29.462Z,397.87
2022-09-11T03:51:24.918Z,395.04
2022-09-11T03:52:20.813Z,393.88
2022-09-11T03:53:15.959Z,393.41
2022-09-11T03:54:11.454Z,392.95
2022-09-11T03:55:07.474Z,394.34
2022-09-11T03:56:02.780Z,393.64
2022-09-11T03:56:58.511Z,387.24
2022-09-11T03:57:53.775Z,391.79
2022-09-11T03:58:49.082Z,391.79
2022-09-11T03:59:44.819Z,391.33
2022-09-11T04:00:40.129Z,389.96
2022-09-11T04:01:35.867Z,393.41
2022-09-11T04:02:30.995Z,396.22
2022-09-11T04:03:26.405Z,396.92
2022-09-11T04:04:22.165Z,394.81
2022-09-11T04:05:17.315Z,393.88
2022-09-11T04:06:12.509Z,390.88
2022-09-11T04:07:08.746Z,395.51
2022-09-11T04:08:04.063Z,394.58
2022-09-11T04:08:59.907Z,395.04
2022-09-11T04:09:55.053Z,396.92
2022-09-11T04:10:50.341Z,397.87
2022-09-11T04:11:46.048Z,399.78
2022-09-11T04:12:41.222Z,402.19
2022-09-11T04:13:37.042Z,398.35
2022-09-11T04:14:32.175Z,404.88
2022-09-11T04:15:27.474Z,402.43
2022-09-11T04:16:23.387Z,401.46
2022-09-11T04:17:18.567Z,406.11
2022-09-11T04:18:13.834Z,405.12
2022-09-11T04:19:10.211Z,404.88
2022-09-11T04:20:05.475Z,405.86
2022-09-11T04:21:01.318Z,401.22
2022-09-11T04:21:56.486Z,404.14
2022-09-11T04:22:51.645Z,408.85
2022-09-11T04:23:46.961Z,409.35
2022-09-11T04:24:43.334Z,406.61
2022-09-11T04:25:38.440Z,408.35
2022-09-11T04:26:33.893Z,411.12
2022-09-11T04:27:29.584Z,410.11
2022-09-11T04:28:24.876Z,407.85
2022-09-11T04:29:20.055Z,410.11
2022-09-11T04:30:16.295Z,407.85
2022-09-11T04:31:11.717Z,409.60
2022-09-11T04:32:07.461Z,404.14
2022-09-11T04:33:02.650Z,408.35
2022-09-11T04:33:58.315Z,404.63
2022-09-11T04:34:53.704Z,403.41
2022-09-11T04:35:48.944Z,402.43
2022-09-11T04:36:44.682Z,398.11
2022-09-11T04:37:39.882Z,399.06
2022-09-11T04:38:35.252Z,397.40
2022-09-11T04:39:31.027Z,397.64
2022-09-11T04:40:26.253Z,395.04
2022-09-11T04:41:21.458Z,393.41
2022-09-11T04:42:16.639Z,397.40
2022-09-11T04:43:11.860Z,396.22
2022-09-11T04:44:07.039Z,395.04
2022-09-11T04:45:02.522Z,395.04
2022-09-11T04:45:58.246Z,395.51
2022-09-11T04:46:53.455Z,397.16
2022-09-11T04:47:48.731Z,396.22
2022-09-11T04:48:44.542Z,399.30
2022-09-11T04:49:39.918Z,400.74
2022-09-11T04:50:35.198Z,399.78
2022-09-11T04:51:30.444Z,397.16
2022-09-11T04:52:25.437Z,390.88
2022-09-11T04:53:20.533Z,393.64
2022-09-11T04:54:15.576Z,392.95
2022-09-11T04:55:10.637Z,396.45
2022-09-11T04:56:05.720Z,390.42
2022-09-11T04:57:00.696Z,393.88
2022-09-11T04:57:55.747Z,391.33
2022-09-11T04:58:50.770Z,391.79
2022-09-11T04:59:45.786Z,393.64
2022-09-11T05:00:40.871Z,393.41
2022-09-11T05:01:36.044Z,393.41
2022-09-11T05:02:31.310Z,395.04
2022-09-11T05:03:26.456Z,391.33
2022-09-11T05:04:26.265Z,393.64
2022-09-11T05:05:19.303Z,395.51
2022-09-11T05:06:14.369Z,395.75
2022-09-11T05:07:09.440Z,393.64
2022-09-11T05:08:04.466Z,398.11
2022-09-11T05:08:59.493Z,396.45
2022-09-11T05:09:54.533Z,396.22
2022-09-11T05:10:49.544Z,396.22
2022-09-11T05:11:44.592Z,398.58
2022-09-11T05:12:39.765Z,399.78
2022-09-11T05:13:36.567Z,400.50
2022-09-11T05:14:30.892Z,396.69
2022-09-11T05:15:24.975Z,394.58
2022-09-11T05:16:20.051Z,398.11
2022-09-11T05:17:15.366Z,391.56
2022-09-11T05:18:10.789Z,390.65
2022-09-11T05:19:06.116Z,386.12
2022-09-11T05:20:01.418Z,385.68
2022-09-11T05:20:56.783Z,387.47
2022-09-11T05:21:52.090Z,389.51
2022-09-11T05:22:47.403Z,389.73
2022-09-11T05:23:42.960Z,389.05
2022-09-11T05:24:38.191Z,390.88
2022-09-11T05:25:33.541Z,388.14
2022-09-11T05:26:28.913Z,389.05
2022-09-11T05:27:24.268Z,385.68
2022-09-11T05:28:19.631Z,384.79
2022-09-11T05:29:15.562Z,382.36
2022-09-11T05:30:10.911Z,378.17
2022-09-11T05:31:05.995Z,372.58
2022-09-11T05:32:00.975Z,369.23
2022-09-11T05:32:56.059Z,365.93
2022-09-11T05:33:51.275Z,365.93
2022-09-11T05:34:46.390Z,365.53
2022-09-11T05:35:41.465Z,363.10
2022-09-11T05:36:37.305Z,364.71
2022-09-11T05:37:31.575Z,363.50
2022-09-11T05:38:26.582Z,365.93
2022-09-11T05:39:21.582Z,366.75
2022-09-11T05:40:16.667Z,369.23
2022-09-11T05:41:11.756Z,369.64
2022-09-11T05:42:06.739Z,369.64
2022-09-11T05:43:01.850Z,371.32
2022-09-11T05:43:56.868Z,372.58
2022-09-11T05:44:52.017Z,372.58
2022-09-11T05:45:47.052Z,373.86
2022-09-11T05:46:42.096Z,370.48
2022-09-11T05:47:37.094Z,370.06
2022-09-11T05:48:32.228Z,372.58
2022-09-11T05:49:27.649Z,370.90
2022-09-11T05:50:23.060Z,371.74
2022-09-11T05:51:18.519Z,370.48
2022-09-11T05:52:13.937Z,370.90
2022-09-11T05:53:09.484Z,372.16
2022-09-11T05:54:04.764Z,371.74
2022-09-11T05:55:00.188Z,371.32
2022-09-11T05:55:55.608Z,367.16
2022-09-11T05:56:51.021Z,365.12
2022-09-11T05:57:46.418Z,364.71
2022-09-11T05:58:41.868Z,359.52
2022-09-11T05:59:41.177Z,352.95
2022-09-11T06:00:36.586Z,358.73
2022-09-11T06:01:35.858Z,354.47
2022-09-11T06:02:31.188Z,352.57
2022-09-11T06:03:26.613Z,357.56
2022-09-11T06:04:22.049Z,357.17
2022-09-11T06:05:17.448Z,355.62
2022-09-11T06:06:16.131Z,350.31
2022-09-11T06:07:11.677Z,344.06
2022-09-11T06:08:07.109Z,344.42
2022-09-11T06:09:02.534Z,342.63
2022-09-11T06:10:02.425Z,343.34
2022-09-11T06:10:54.402Z,341.91
2022-09-11T06:11:48.853Z,331.88
2022-09-11T06:12:44.287Z,333.23
2022-09-11T06:13:39.682Z,335.96
2022-09-11T06:14:35.093Z,337.34
2022-09-11T06:15:46.164Z,339.08
2022-09-11T06:16:27.026Z,338.39
2022-09-11T06:17:21.550Z,342.98
2022-09-11T06:18:16.974Z,332.89
2022-09-11T06:19:12.399Z,330.88
2022-09-11T06:20:07.423Z,325.30
2022-09-11T06:21:02.423Z,328.89
2022-09-11T06:21:57.462Z,324.02
2022-09-11T06:22:52.439Z,321.16
2022-09-11T06:23:47.436Z,325.30
2022-09-11T06:24:42.488Z,317.13
2022-09-11T06:25:37.507Z,321.16
2022-09-11T06:26:32.530Z,317.74
2022-09-11T06:27:27.545Z,314.09
2022-09-11T06:28:22.547Z,310.82
2022-09-11T06:29:17.574Z,300.84
2022-09-11T06:30:12.601Z,304.19
2022-09-11T06:31:07.713Z,304.76
2022-09-11T06:32:02.725Z,309.64
2022-09-11T06:32:57.716Z,308.19
2022-09-11T06:33:53.034Z,306.46
2022-09-11T06:34:48.045Z,300.84
2022-09-11T06:35:43.038Z,301.95
2022-09-11T06:36:38.052Z,304.76
2022-09-11T06:37:33.232Z,302.79
2022-09-11T06:38:28.113Z,299.74
2022-09-11T06:39:23.303Z,295.69
2022-09-11T06:40:18.211Z,298.11
2022-09-11T06:41:13.337Z,301.95
2022-09-11T06:42:08.374Z,300.02
2022-09-11T06:43:03.578Z,303.35
2022-09-11T06:43:58.603Z,300.29
2022-09-11T06:44:53.606Z,297.57
2022-09-11T06:45:48.667Z,297.57
2022-09-11T06:46:43.948Z,294.37
2022-09-11T06:47:39.350Z,293.58
2022-09-11T06:48:34.812Z,292.53
2022-09-11T06:49:30.203Z,289.43
2022-09-11T06:50:25.625Z,288.92
2022-09-11T06:51:21.071Z,293.84
2022-09-11T06:52:16.091Z,294.90
2022-09-11T06:53:11.444Z,300.57
2022-09-11T06:54:06.197Z,306.75
2022-09-11T06:55:01.223Z,310.82
2022-09-11T06:55:56.237Z,312.89
2022-09-11T06:56:51.253Z,316.52
2022-09-11T06:57:46.268Z,317.43
2022-09-11T06:58:43.891Z,318.36
2022-09-11T06:59:38.922Z,318.67
2022-09-11T07:00:33.955Z,317.43
2022-09-11T07:01:29.160Z,320.85
2022-09-11T07:02:24.137Z,321.48
2022-09-11T07:03:19.146Z,324.34
2022-09-11T07:04:14.215Z,325.95
2022-09-11T07:05:09.280Z,330.55
2022-09-11T07:06:05.467Z,334.59
2022-09-11T07:07:01.000Z,335.62
2022-09-11T07:07:56.623Z,330.21
2022-09-11T07:08:52.066Z,328.89
2022-09-11T07:09:47.475Z,321.48
2022-09-11T07:10:42.891Z,327.25
2022-09-11T07:11:38.330Z,333.57
2022-09-11T07:12:33.760Z,340.14
2022-09-11T07:13:29.213Z,342.98
2022-09-11T07:14:24.852Z,338.04
2022-09-11T07:15:19.903Z,334.59
2022-09-11T07:16:14.984Z,329.88
2022-09-11T07:17:10.042Z,322.42
2022-09-11T07:18:05.148Z,322.11
2022-09-11T07:19:00.285Z,329.22
2022-09-11T07:19:55.245Z,333.91
2022-09-11T07:20:50.329Z,333.57
2022-09-11T07:21:47.840Z,331.88
2022-09-11T07:22:42.935Z,331.88
2022-09-11T07:23:38.012Z,334.25
2022-09-11T07:24:33.078Z,337.00
2022-09-11T07:25:28.119Z,338.73
2022-09-11T07:26:23.209Z,344.06
2022-09-11T07:27:18.312Z,348.45
2022-09-11T07:28:13.386Z,350.31
2022-09-11T07:29:08.743Z,349.56
2022-09-11T07:30:04.217Z,345.88
2022-09-11T07:30:59.740Z,345.15
2022-09-11T07:31:55.189Z,348.45
2022-09-11T07:32:52.489Z,354.47
2022-09-11T07:33:48.024Z,364.31
2022-09-11T07:34:43.427Z,373.86
2022-09-11T07:35:38.756Z,380.83
2022-09-11T07:36:34.163Z,379.75
2022-09-11T07:37:29.607Z,376.86
2022-09-11T07:38:24.593Z,376.86
2022-09-11T07:39:19.591Z,359.13
2022-09-11T07:40:14.675Z,352.95
2022-09-11T07:41:09.670Z,355.24
2022-09-11T07:42:04.673Z,357.17
2022-09-11T07:42:59.705Z,349.56
2022-09-11T07:43:54.703Z,344.79
2022-09-11T07:44:51.222Z,338.04
2022-09-11T07:45:46.303Z,326.92
2022-09-11T07:46:41.231Z,312.89
2022-09-11T07:47:36.311Z,319.29
2022-09-11T07:48:31.375Z,316.82
2022-09-11T07:49:26.573Z,313.19
2022-09-11T07:50:21.795Z,312.00
2022-09-11T07:51:16.727Z,314.69
2022-09-11T07:52:16.133Z,314.39
2022-09-11T07:53:07.857Z,310.52
2022-09-11T07:54:02.086Z,303.07
2022-09-11T07:54:57.182Z,305.61
2022-09-11T07:55:52.278Z,310.23
2022-09-11T07:56:47.358Z,309.94
2022-09-11T07:57:42.440Z,310.52
2022-09-11T07:58:37.528Z,311.11
2022-09-11T07:59:32.909Z,311.11
2022-09-11T08:00:36.500Z,312.00
2022-09-11T08:01:27.740Z,312.30
2022-09-11T08:02:23.243Z,285.40
2022-09-11T08:03:18.674Z,178.10
2022-09-11T08:04:14.185Z,106.56
2022-09-11T08:05:09.794Z,64.17
2022-09-11T08:06:04.843Z,45.94
2022-09-11T08:06:59.836Z,44.01
2022-09-11T08:07:54.857Z,45.54
2022-09-11T08:08:49.956Z,39.17
2022-09-11T08:09:44.979Z,34.63
2022-09-11T08:10:40.009Z,28.62
2022-09-11T08:11:35.212Z,31.07
2022-09-11T08:12:30.290Z,36.19
2022-09-11T08:13:25.361Z,44.47
2022-09-11T08:14:20.436Z,48.39
2022-09-11T08:15:15.485Z,47.10
2022-09-11T08:16:10.736Z,48.19
2022-09-11T08:17:06.184Z,48.36
2022-09-11T08:18:01.781Z,48.73
2022-09-11T08:18:57.109Z,49.86
2022-09-11T08:19:52.562Z,44.19
2022-09-11T08:20:47.641Z,42.79
2022-09-11T08:21:42.692Z,43.28
2022-09-11T08:22:37.740Z,44.76
2022-09-11T08:23:34.045Z,45.49
2022-09-11T08:24:29.076Z,45.29
2022-09-11T08:25:24.138Z,45.00
2022-09-11T08:26:19.382Z,49.28
2022-09-11T08:27:14.431Z,52.67
2022-09-11T08:28:09.625Z,60.45
2022-09-11T08:29:04.697Z,67.16
2022-09-11T08:29:59.751Z,76.74
2022-09-11T08:30:54.896Z,85.99
2022-09-11T08:31:49.814Z,87.80
2022-09-11T08:32:44.861Z,91.86
2022-09-11T08:33:39.912Z,96.96
2022-09-11T08:34:34.943Z,81.94
2022-09-11T08:35:30.162Z,65.68
2022-09-11T08:36:25.209Z,55.80
2022-09-11T08:37:20.256Z,54.63
2022-09-11T08:38:15.340Z,57.69
2022-09-11T08:39:10.397Z,64.82
2022-09-11T08:40:05.480Z,70.57
2022-09-11T08:41:00.541Z,71.42
2022-09-11T08:41:55.580Z,66.15
2022-09-11T08:42:50.797Z,61.07
2022-09-11T08:43:45.858Z,64.22
2022-09-11T08:44:40.907Z,66.63
2022-09-11T08:45:36.053Z,72.91
2022-09-11T08:46:31.085Z,82.42
2022-09-11T08:47:26.177Z,83.16
2022-09-11T08:48:21.188Z,88.83
2022-09-11T08:49:16.247Z,96.46
2022-09-11T08:50:11.345Z,112.53
2022-09-11T08:51:06.335Z,132.76
2022-09-11T08:52:01.616Z,143.12
2022-09-11T08:52:57.028Z,146.64
2022-09-11T08:53:52.397Z,158.48
2022-09-11T08:54:47.926Z,181.98
2022-09-11T08:55:43.464Z,183.99
2022-09-11T08:56:38.433Z,174.55
2022-09-11T08:57:33.545Z,154.51
2022-09-11T08:58:28.635Z,164.25
2022-09-11T08:59:23.735Z,155.38
2022-09-11T09:00:18.915Z,140.47
2022-09-11T09:01:13.908Z,134.04
2022-09-11T09:02:08.920Z,145.87
2022-09-11T09:03:04.004Z,138.95
2022-09-11T09:03:59.083Z,139.41
2022-09-11T09:04:54.093Z,133.39
2022-09-11T09:05:49.201Z,109.93
2022-09-11T09:06:44.336Z,97.70
2022-09-11T09:07:39.390Z,93.09
2022-09-11T09:08:34.458Z,95.21
2022-09-11T09:09:34.992Z,95.52
2022-09-11T09:10:26.762Z,99.75
2022-09-11T09:11:22.341Z,115.64
2022-09-11T09:12:17.861Z,100.65
2022-09-11T09:13:13.451Z,89.11
2022-09-11T09:14:08.926Z,95.00
2022-09-11T09:15:04.369Z,95.36
2022-09-11T09:15:59.851Z,92.37
2022-09-11T09:16:55.346Z,95.19
2022-09-11T09:17:50.821Z,106.70
2022-09-11T09:18:46.485Z,115.89
2022-09-11T09:19:41.885Z,117.35
2022-09-11T09:20:37.410Z,118.35
2022-09-11T09:21:32.933Z,120.84
2022-09-11T09:22:28.510Z,118.27
2022-09-11T09:23:23.603Z,117.43
2022-09-11T09:24:18.703Z,124.81
2022-09-11T09:25:13.712Z,118.69
2022-09-11T09:26:08.811Z,116.13
2022-09-11T09:27:04.068Z,123.70
2022-09-11T09:27:59.068Z,150.34
2022-09-11T09:28:54.078Z,162.49
2022-09-11T09:29:49.071Z,146.64
2022-09-11T09:30:44.258Z,156.69
2022-09-11T09:31:39.221Z,161.70
2022-09-11T09:32:35.442Z,165.88
2022-09-11T09:33:30.434Z,163.92
2022-09-11T09:34:25.422Z,168.90
2022-09-11T09:35:20.426Z,176.96
2022-09-11T09:36:16.566Z,189.15
2022-09-11T09:37:12.220Z,188.07
2022-09-11T09:38:07.630Z,188.18
2022-09-11T09:39:03.138Z,166.21
2022-09-11T09:39:59.003Z,159.69
2022-09-11T09:40:54.158Z,141.66
2022-09-11T09:41:49.580Z,136.11
2022-09-11T09:42:45.137Z,138.60
2022-09-11T09:43:40.506Z,146.25
2022-09-11T09:44:35.908Z,156.69
2022-09-11T09:45:31.449Z,173.83
2022-09-11T09:46:26.853Z,187.00
2022-09-11T09:47:22.396Z,189.26
2022-09-11T09:48:17.956Z,186.47
2022-09-11T09:49:13.045Z,190.36
2022-09-11T09:50:08.159Z,197.70
2022-09-11T09:51:03.166Z,194.42
2022-09-11T09:52:02.143Z,190.36
2022-09-11T09:52:54.211Z,190.25
2022-09-11T09:53:48.215Z,195.93
2022-09-11T09:54:43.332Z,210.24
2022-09-11T09:55:38.340Z,219.09
2022-09-11T09:56:33.451Z,244.20
2022-09-11T09:57:28.562Z,262.36
2022-09-11T09:58:23.590Z,281.25
2022-09-11T09:59:18.965Z,290.97
2022-09-11T10:00:14.377Z,293.84
2022-09-11T10:01:09.959Z,296.23
2022-09-11T10:02:05.601Z,292.79
2022-09-11T10:03:01.056Z,298.65
2022-09-11T10:03:56.446Z,308.48
2022-09-11T10:04:51.533Z,311.11
2022-09-11T10:05:46.571Z,304.76
2022-09-11T10:06:41.541Z,311.41
2022-09-11T10:07:36.543Z,317.13
2022-09-11T10:08:31.691Z,312.60
2022-09-11T10:09:26.664Z,334.59
2022-09-11T10:10:21.785Z,338.39
2022-09-11T10:11:18.918Z,342.63
2022-09-11T10:12:14.435Z,349.93
2022-09-11T10:13:19.793Z,357.17
2022-09-11T10:14:11.802Z,342.27
2022-09-11T10:15:02.080Z,334.59
2022-09-11T10:15:56.455Z,327.25
2022-09-11T10:16:51.763Z,319.60
2022-09-11T10:17:47.217Z,312.60
2022-09-11T10:18:43.235Z,316.21
2022-09-11T10:19:38.346Z,318.98
2022-09-11T10:20:33.831Z,312.30
2022-09-11T10:21:29.506Z,288.16
2022-09-11T10:22:25.001Z,288.67
2022-09-11T10:23:20.473Z,296.49
2022-09-11T10:24:16.198Z,304.19
2022-09-11T10:25:11.253Z,309.64
2022-09-11T10:26:06.222Z,308.48
2022-09-11T10:27:01.226Z,303.07
2022-09-11T10:27:56.457Z,311.41
2022-09-11T10:28:51.718Z,314.39
2022-09-11T10:29:46.732Z,303.35
2022-09-11T10:30:41.848Z,287.66
2022-09-11T10:31:36.974Z,285.16
2022-09-11T10:32:32.085Z,280.29
2022-09-11T10:33:27.219Z,267.93
2022-09-11T10:34:22.221Z,277.91
2022-09-11T10:35:17.344Z,285.90
2022-09-11T10:36:12.316Z,299.47
2022-09-11T10:37:07.567Z,307.33
2022-09-11T10:38:02.574Z,298.93
2022-09-11T10:38:57.605Z,301.12
2022-09-11T10:39:52.652Z,303.91
2022-09-11T10:40:47.615Z,312.30
2022-09-11T10:41:43.036Z,317.74
2022-09-11T10:42:38.546Z,327.90
2022-09-11T10:43:33.675Z,332.55
2022-09-11T10:44:28.654Z,334.59
2022-09-11T10:45:23.764Z,328.89
2022-09-11T10:46:18.790Z,326.27
2022-09-11T10:47:13.779Z,329.55
2022-09-11T10:48:08.911Z,332.22
2022-09-11T10:49:03.918Z,316.52
2022-09-11T10:49:58.912Z,299.74
2022-09-11T10:50:53.998Z,312.00
2022-09-11T10:51:48.983Z,303.91
2022-09-11T10:52:44.121Z,295.69
2022-09-11T10:53:39.136Z,288.92
2022-09-11T10:54:34.259Z,286.40
2022-09-11T10:55:29.780Z,290.20
2022-09-11T10:56:25.346Z,293.84
2022-09-11T10:57:20.864Z,278.86
2022-09-11T10:58:16.379Z,265.76
2022-09-11T10:59:11.932Z,264.26
2022-09-11T11:00:07.463Z,269.24
2022-09-11T11:01:02.521Z,277.91
2022-09-11T11:01:57.589Z,287.40
2022-09-11T11:02:52.480Z,310.82
2022-09-11T11:03:48.425Z,327.25
2022-09-11T11:04:43.548Z,329.22
2022-09-11T11:05:38.652Z,333.91
2022-09-11T11:06:33.670Z,351.06
2022-09-11T11:07:28.780Z,357.95
2022-09-11T11:08:23.889Z,370.48
2022-09-11T11:09:18.913Z,392.95
2022-09-11T11:10:14.163Z,393.64
2022-09-11T11:11:09.168Z,406.85
2022-09-11T11:12:04.152Z,401.46
2022-09-11T11:12:59.281Z,416.51
2022-09-11T11:13:55.382Z,415.47
2022-09-11T11:14:50.777Z,462.44
2022-09-11T11:15:46.508Z,474.95
2022-09-11T11:16:41.838Z,490.32
2022-09-11T11:17:37.437Z,543.91
2022-09-11T11:18:32.806Z,554.31
2022-09-11T11:19:28.190Z,548.83
2022-09-11T11:20:23.706Z,557.09
2022-09-11T11:21:19.265Z,635.68
2022-09-11T11:22:14.759Z,650.57
2022-09-11T11:23:14.470Z,615.73
2022-09-11T11:24:06.679Z,567.03
2022-09-11T11:25:01.230Z,524.24
2022-09-11T11:25:56.937Z,510.20
2022-09-11T11:26:55.692Z,515.33
2022-09-11T11:27:51.045Z,496.16
2022-09-11T11:28:46.401Z,527.56
2022-09-11T11:29:41.929Z,513.74
2022-09-11T11:30:37.421Z,513.34
2022-09-11T11:31:32.960Z,524.24
2022-09-11T11:32:28.376Z,555.23